createdAt,value
2019-03-06T00:01:24.956Z,6.15
2019-03-06T00:04:13.750Z,6.09
2019-03-06T00:07:02.984Z,6.06
2019-03-06T00:09:53.212Z,6.04
2019-03-06T00:12:42.082Z,6.01
2019-03-06T00:15:31.361Z,6.17
2019-03-06T00:18:20.205Z,6.32
2019-03-06T00:21:09.487Z,6.41
2019-03-06T00:23:58.515Z,6.59
2019-03-06T00:26:47.729Z,6.33
2019-03-06T00:29:37.051Z,6.55
2019-03-06T00:32:26.395Z,6.59
2019-03-06T00:35:20.447Z,6.64
2019-03-06T00:38:09.574Z,6.94
2019-03-06T00:41:18.022Z,7.38
2019-03-06T00:44:07.268Z,7.45
2019-03-06T00:46:56.616Z,7.66
2019-03-06T00:49:45.762Z,7.77
2019-03-06T00:52:35.027Z,7.82
2019-03-06T00:55:24.266Z,7.81
2019-03-06T00:58:13.811Z,7.81
2019-03-06T01:01:02.767Z,7.75
2019-03-06T01:03:52.112Z,7.77
2019-03-06T01:06:41.305Z,7.74
2019-03-06T01:09:30.160Z,7.71
2019-03-06T01:12:19.451Z,7.76
2019-03-06T01:15:09.023Z,7.72
2019-03-06T01:17:58.205Z,7.77
2019-03-06T01:20:47.620Z,7.81
2019-03-06T01:23:36.647Z,7.93
2019-03-06T01:26:25.946Z,7.93
2019-03-06T01:29:15.243Z,7.99
2019-03-06T01:32:05.110Z,8.05
2019-03-06T01:35:19.410Z,8.07
2019-03-06T01:38:37.008Z,8.05
2019-03-06T01:42:03.913Z,8.09
2019-03-06T01:44:56.324Z,8.07
2019-03-06T01:47:45.311Z,8.06
2019-03-06T01:50:34.610Z,8.04
2019-03-06T01:53:27.110Z,7.97
2019-03-06T01:56:16.320Z,7.99
2019-03-06T01:59:05.883Z,7.99
2019-03-06T02:01:55.137Z,7.97
2019-03-06T02:04:44.532Z,7.86
2019-03-06T02:07:34.210Z,7.81
2019-03-06T02:10:23.313Z,7.77
2019-03-06T02:13:14.234Z,7.63
2019-03-06T02:16:03.895Z,7.66
2019-03-06T02:18:53.141Z,7.56
2019-03-06T02:21:42.774Z,7.42
2019-03-06T02:24:32.336Z,7.37
2019-03-06T02:27:21.603Z,7.29
2019-03-06T02:30:13.993Z,7.22
2019-03-06T02:33:03.089Z,7.36
2019-03-06T02:35:52.557Z,7.35
2019-03-06T02:38:41.623Z,7.26
2019-03-06T02:41:30.946Z,7.17
2019-03-06T02:44:20.135Z,6.94
2019-03-06T02:47:09.427Z,6.75
2019-03-06T02:49:58.926Z,6.64
2019-03-06T02:52:48.542Z,6.57
2019-03-06T02:55:37.786Z,6.26
2019-03-06T02:58:44.278Z,6.28
2019-03-06T03:01:47.799Z,6.41
2019-03-06T03:04:41.633Z,6.26
2019-03-06T03:07:30.853Z,6.21
2019-03-06T03:10:20.390Z,6.14
2019-03-06T03:13:09.193Z,6.22
2019-03-06T03:15:58.530Z,6.27
2019-03-06T03:18:47.683Z,6.21
2019-03-06T03:21:36.988Z,6.13
2019-03-06T03:24:26.250Z,6.03
2019-03-06T03:27:15.336Z,5.99
2019-03-06T03:30:05.689Z,6.08
2019-03-06T03:32:55.538Z,5.87
2019-03-06T03:35:45.213Z,5.85
2019-03-06T03:38:34.684Z,5.79
2019-03-06T03:41:23.390Z,5.72
2019-03-06T03:44:12.656Z,5.77
2019-03-06T03:47:01.937Z,5.83
2019-03-06T03:49:51.301Z,5.77
2019-03-06T03:52:40.686Z,5.71
2019-03-06T03:55:33.113Z,5.60
2019-03-06T03:58:22.175Z,5.49
2019-03-06T04:01:11.643Z,5.48
2019-03-06T04:04:00.679Z,5.34
2019-03-06T04:06:50.017Z,5.24
2019-03-06T04:09:39.341Z,5.40
2019-03-06T04:12:28.642Z,5.68
2019-03-06T04:15:18.868Z,5.78
2019-03-06T04:18:08.424Z,5.55
2019-03-06T04:20:57.981Z,5.35
2019-03-06T04:23:47.263Z,5.26
2019-03-06T04:26:36.563Z,5.08
2019-03-06T04:29:25.646Z,5.30
2019-03-06T04:32:14.192Z,5.16
2019-03-06T04:35:03.454Z,5.01
2019-03-06T04:37:52.743Z,4.89
2019-03-06T04:40:41.883Z,4.78
2019-03-06T04:43:31.105Z,4.74
2019-03-06T04:46:20.769Z,4.52
2019-03-06T04:49:09.831Z,4.41
2019-03-06T04:51:59.417Z,4.40
2019-03-06T04:54:48.637Z,4.40
2019-03-06T04:57:38.080Z,4.38
2019-03-06T05:00:27.614Z,4.24
2019-03-06T05:03:16.786Z,4.41
2019-03-06T05:06:06.489Z,4.12
2019-03-06T05:08:55.844Z,4.08
2019-03-06T05:11:45.363Z,4.22
2019-03-06T05:14:35.025Z,4.32
2019-03-06T05:17:52.642Z,4.28
2019-03-06T05:20:41.927Z,4.30
2019-03-06T05:23:31.181Z,4.37
2019-03-06T05:26:20.483Z,4.29
2019-03-06T05:29:09.760Z,4.30
2019-03-06T05:32:45.460Z,4.46
2019-03-06T05:36:24.139Z,4.42
2019-03-06T05:39:13.337Z,4.10
2019-03-06T05:42:03.573Z,3.97
2019-03-06T05:44:53.370Z,4.44
2019-03-06T05:47:42.698Z,4.63
2019-03-06T05:50:38.699Z,4.77
2019-03-06T05:53:30.283Z,5.27
2019-03-06T05:56:25.717Z,5.54
2019-03-06T05:59:15.359Z,6.03
2019-03-06T06:02:04.245Z,6.28
2019-03-06T06:04:53.325Z,5.96
2019-03-06T06:07:43.096Z,6.49
2019-03-06T06:10:32.375Z,6.70
2019-03-06T06:13:21.958Z,6.82
2019-03-06T06:16:10.616Z,6.90
2019-03-06T06:18:59.125Z,7.10
2019-03-06T06:22:16.466Z,7.38
2019-03-06T06:25:05.636Z,7.59
2019-03-06T06:27:55.247Z,7.81
2019-03-06T06:30:44.306Z,8.05
2019-03-06T06:33:33.759Z,8.19
2019-03-06T06:36:23.365Z,8.42
2019-03-06T06:39:12.935Z,8.63
2019-03-06T06:42:01.741Z,8.88
2019-03-06T06:44:51.094Z,9.11
2019-03-06T06:48:15.101Z,9.38
2019-03-06T06:51:46.533Z,9.63
2019-03-06T06:55:12.936Z,9.74
2019-03-06T06:58:33.217Z,10.12
2019-03-06T07:01:52.929Z,10.31
2019-03-06T07:05:33.110Z,10.55
2019-03-06T07:08:40.556Z,10.89
2019-03-06T07:11:50.660Z,11.06
2019-03-06T07:14:59.176Z,11.34
2019-03-06T07:17:57.304Z,11.43
2019-03-06T07:21:20.739Z,11.48
2019-03-06T07:24:24.945Z,11.42
2019-03-06T07:27:39.097Z,11.42
2019-03-06T07:30:37.310Z,11.49
2019-03-06T07:33:57.810Z,11.42
2019-03-06T07:36:55.531Z,11.65
2019-03-06T07:39:54.923Z,11.77
2019-03-06T07:43:01.945Z,11.60
2019-03-06T07:46:12.799Z,11.48
2019-03-06T07:49:44.761Z,11.10
2019-03-06T07:52:44.922Z,11.00
2019-03-06T07:55:50.678Z,10.77
2019-03-06T07:58:54.198Z,10.86
2019-03-06T08:02:04.558Z,10.97
2019-03-06T08:04:54.544Z,11.02
2019-03-06T08:07:44.140Z,11.10
2019-03-06T08:10:36.332Z,11.22
2019-03-06T08:13:50.293Z,11.33
2019-03-06T08:16:48.059Z,11.30
2019-03-06T08:20:02.572Z,11.43
2019-03-06T08:23:17.500Z,11.41
2019-03-06T08:26:06.959Z,11.76
2019-03-06T08:28:56.341Z,11.56
2019-03-06T08:31:54.610Z,11.45
2019-03-06T08:34:43.915Z,11.30
2019-03-06T08:37:33.633Z,11.19
2019-03-06T08:40:23.270Z,11.08
2019-03-06T08:43:12.535Z,11.09
2019-03-06T08:46:23.564Z,11.04
2019-03-06T08:49:31.587Z,11.05
2019-03-06T08:52:42.610Z,11.18
2019-03-06T08:55:54.128Z,11.25
2019-03-06T08:59:18.737Z,11.54
2019-03-06T09:02:33.464Z,11.99
2019-03-06T09:05:39.378Z,12.28
2019-03-06T09:09:02.094Z,12.22
2019-03-06T09:12:13.104Z,12.18
2019-03-06T09:15:35.579Z,12.25
2019-03-06T09:18:42.369Z,12.31
2019-03-06T09:21:49.067Z,12.20
2019-03-06T09:24:56.271Z,12.32
2019-03-06T09:28:10.630Z,12.34
2019-03-06T09:31:14.627Z,12.37
2019-03-06T09:34:22.651Z,12.13
2019-03-06T09:37:29.952Z,12.37
2019-03-06T09:40:53.756Z,12.55
2019-03-06T09:44:00.516Z,12.52
2019-03-06T09:46:59.091Z,12.64
2019-03-06T09:50:16.807Z,12.92
2019-03-06T09:53:31.540Z,12.75
2019-03-06T09:56:40.403Z,12.90
2019-03-06T09:59:34.812Z,13.18
2019-03-06T10:02:52.020Z,13.17
2019-03-06T10:06:05.951Z,13.09
2019-03-06T10:09:14.071Z,13.28
2019-03-06T10:12:28.147Z,13.30
2019-03-06T10:15:25.418Z,13.30
2019-03-06T10:18:36.614Z,13.13
2019-03-06T10:21:25.846Z,13.61
2019-03-06T10:24:15.933Z,13.30
2019-03-06T10:27:05.515Z,13.51
2019-03-06T10:29:55.012Z,13.39
2019-03-06T10:32:44.635Z,13.58
2019-03-06T10:35:34.235Z,13.60
2019-03-06T10:38:24.257Z,13.57
2019-03-06T10:41:13.546Z,13.46
2019-03-06T10:44:02.803Z,13.58
2019-03-06T10:46:52.073Z,13.85
2019-03-06T10:49:41.449Z,14.09
2019-03-06T10:52:30.276Z,13.98
2019-03-06T10:55:19.569Z,13.87
2019-03-06T10:58:08.852Z,13.76
2019-03-06T11:00:58.337Z,14.11
2019-03-06T11:04:12.551Z,13.87
2019-03-06T11:07:01.706Z,14.16
2019-03-06T11:09:50.977Z,13.92
2019-03-06T11:12:40.257Z,14.27
2019-03-06T11:15:29.600Z,14.35
2019-03-06T11:18:18.628Z,14.17
2019-03-06T11:21:08.552Z,14.62
2019-03-06T11:23:58.122Z,14.62
2019-03-06T11:26:48.240Z,14.62
2019-03-06T11:29:37.676Z,14.30
2019-03-06T11:32:27.067Z,14.50
2019-03-06T11:35:18.119Z,14.27
2019-03-06T11:38:07.963Z,14.62
2019-03-06T11:40:57.459Z,14.67
2019-03-06T11:43:46.924Z,14.83
2019-03-06T11:46:35.874Z,14.88
2019-03-06T11:49:25.200Z,14.72
2019-03-06T11:52:15.191Z,14.57
2019-03-06T11:55:07.541Z,15.15
2019-03-06T11:57:57.647Z,15.01
2019-03-06T12:00:47.303Z,14.63
2019-03-06T12:03:38.110Z,14.46
2019-03-06T12:06:27.314Z,14.83
2019-03-06T12:09:35.785Z,15.03
2019-03-06T12:12:25.030Z,14.88
2019-03-06T12:15:15.935Z,14.90
2019-03-06T12:18:05.214Z,15.28
2019-03-06T12:20:55.301Z,15.54
2019-03-06T12:23:44.253Z,15.47
2019-03-06T12:26:33.798Z,15.42
2019-03-06T12:29:24.389Z,15.36
2019-03-06T12:32:13.105Z,15.31
2019-03-06T12:35:05.207Z,15.68
2019-03-06T12:37:54.685Z,15.57
2019-03-06T12:40:44.031Z,15.43
2019-03-06T12:43:33.847Z,15.16
2019-03-06T12:46:26.733Z,15.32
2019-03-06T12:49:17.831Z,15.45
2019-03-06T12:52:07.209Z,15.30
2019-03-06T12:54:56.495Z,15.42
2019-03-06T12:57:46.055Z,15.70
2019-03-06T13:00:21.556Z,15.70
2019-03-06T13:02:52.707Z,15.69
2019-03-06T13:05:26.384Z,15.94
2019-03-06T13:07:57.339Z,15.79
2019-03-06T13:10:28.189Z,15.83
2019-03-06T13:12:59.172Z,16.14
2019-03-06T13:15:30.058Z,15.85
2019-03-06T13:18:01.006Z,15.87
2019-03-06T13:20:31.876Z,15.42
2019-03-06T13:23:04.079Z,15.62
2019-03-06T13:25:35.048Z,15.77
2019-03-06T13:28:06.001Z,15.67
2019-03-06T13:30:38.164Z,16.02
2019-03-06T13:33:30.696Z,16.27
2019-03-06T13:36:01.664Z,16.27
2019-03-06T13:38:32.650Z,16.66
2019-03-06T13:41:03.516Z,16.72
2019-03-06T13:43:34.465Z,17.04
2019-03-06T13:46:05.413Z,17.59
2019-03-06T13:48:36.268Z,17.07
2019-03-06T13:51:07.933Z,17.30
2019-03-06T13:53:38.785Z,17.79
2019-03-06T13:56:10.244Z,17.55
2019-03-06T13:58:41.189Z,17.15
2019-03-06T14:01:12.499Z,17.85
2019-03-06T14:03:43.723Z,17.72
2019-03-06T14:06:14.714Z,18.31
2019-03-06T14:09:05.677Z,18.37
2019-03-06T14:11:36.567Z,18.86
2019-03-06T14:14:07.434Z,18.45
2019-03-06T14:16:38.349Z,17.77
2019-03-06T14:19:09.319Z,18.76
2019-03-06T14:21:40.186Z,19.64
2019-03-06T14:24:11.061Z,19.54
2019-03-06T14:26:57.820Z,20.01
2019-03-06T14:29:28.678Z,19.01
2019-03-06T14:32:00.830Z,18.77
2019-03-06T14:34:32.077Z,18.43
2019-03-06T14:37:03.057Z,18.65
2019-03-06T14:39:33.914Z,17.89
2019-03-06T14:42:05.187Z,18.77
2019-03-06T14:44:36.053Z,18.64
2019-03-06T14:47:07.209Z,18.07
2019-03-06T14:49:38.356Z,18.12
2019-03-06T14:52:09.237Z,17.30
2019-03-06T14:54:40.115Z,16.75
2019-03-06T14:57:11.319Z,16.06
2019-03-06T14:59:44.045Z,15.80
2019-03-06T15:02:15.533Z,15.78
2019-03-06T15:04:46.404Z,16.03
2019-03-06T15:07:17.280Z,16.32
2019-03-06T15:09:48.242Z,16.54
2019-03-06T15:12:19.102Z,16.34
2019-03-06T15:14:50.146Z,16.56
2019-03-06T15:17:21.108Z,16.88
2019-03-06T15:19:51.979Z,17.29
2019-03-06T15:22:22.872Z,17.40
2019-03-06T15:24:54.042Z,16.78
2019-03-06T15:27:25.084Z,16.02
2019-03-06T15:29:55.943Z,15.19
2019-03-06T15:32:28.108Z,14.54
2019-03-06T15:34:59.095Z,14.23
2019-03-06T15:37:29.956Z,13.95
2019-03-06T15:40:01.088Z,13.66
2019-03-06T15:42:32.019Z,13.55
2019-03-06T15:45:02.883Z,13.44
2019-03-06T15:47:34.057Z,13.13
2019-03-06T15:50:05.583Z,13.00
2019-03-06T15:52:36.474Z,12.81
2019-03-06T15:55:08.431Z,12.67
2019-03-06T15:57:40.711Z,12.48
2019-03-06T16:00:28.575Z,12.57
2019-03-06T16:02:59.857Z,12.37
2019-03-06T16:05:31.120Z,12.39
2019-03-06T16:08:02.529Z,12.30
2019-03-06T16:10:35.204Z,12.07
2019-03-06T16:13:07.346Z,11.95
2019-03-06T16:15:38.773Z,11.71
2019-03-06T16:18:10.274Z,11.59
2019-03-06T16:20:42.514Z,11.53
2019-03-06T16:23:15.343Z,11.49
2019-03-06T16:25:49.050Z,11.23
2019-03-06T16:28:19.926Z,11.10
2019-03-06T16:30:51.172Z,11.07
2019-03-06T16:33:22.150Z,11.12
2019-03-06T16:35:53.056Z,10.90
2019-03-06T16:38:23.959Z,10.92
2019-03-06T16:40:54.823Z,10.67
2019-03-06T16:43:25.858Z,10.31
2019-03-06T16:45:56.832Z,10.34
2019-03-06T16:48:27.781Z,10.38
2019-03-06T16:50:59.110Z,10.28
2019-03-06T16:53:30.076Z,9.86
2019-03-06T16:56:00.991Z,9.80
2019-03-06T16:58:32.054Z,9.85
2019-03-06T17:01:03.004Z,9.79
2019-03-06T17:03:34.070Z,9.55
2019-03-06T17:06:05.369Z,9.46
2019-03-06T17:08:36.353Z,9.15
2019-03-06T17:11:08.068Z,9.20
2019-03-06T17:13:39.032Z,9.16
2019-03-06T17:16:10.008Z,8.83
2019-03-06T17:18:42.640Z,8.77
2019-03-06T17:21:13.509Z,8.70
2019-03-06T17:23:44.450Z,8.63
2019-03-06T17:26:16.091Z,8.30
2019-03-06T17:28:46.970Z,7.99
2019-03-06T17:31:17.879Z,7.91
2019-03-06T17:33:49.745Z,7.77
2019-03-06T17:36:20.611Z,7.82
2019-03-06T17:38:51.797Z,7.67
2019-03-06T17:41:22.861Z,7.45
2019-03-06T17:43:53.729Z,7.47
2019-03-06T17:46:24.703Z,6.86
2019-03-06T17:48:55.658Z,6.54
2019-03-06T17:51:27.473Z,6.33
2019-03-06T17:53:58.344Z,6.15
2019-03-06T17:56:29.305Z,6.16
2019-03-06T17:59:00.174Z,6.23
2019-03-06T18:01:31.149Z,7.00
2019-03-06T18:04:17.381Z,7.02
2019-03-06T18:06:48.462Z,6.96
2019-03-06T18:09:19.521Z,6.95
2019-03-06T18:11:50.728Z,6.88
2019-03-06T18:14:22.102Z,6.88
2019-03-06T18:16:53.104Z,6.88
2019-03-06T18:19:24.149Z,6.91
2019-03-06T18:21:55.247Z,6.85
2019-03-06T18:24:26.433Z,6.82
2019-03-06T18:26:57.884Z,6.80
2019-03-06T18:29:28.757Z,6.55
2019-03-06T18:32:00.280Z,6.43
2019-03-06T18:34:31.564Z,6.34
2019-03-06T18:37:02.574Z,6.45
2019-03-06T18:39:33.479Z,6.17
2019-03-06T18:42:04.602Z,6.00
2019-03-06T18:44:35.764Z,5.97
2019-03-06T18:47:06.838Z,5.88
2019-03-06T18:49:37.794Z,5.87
2019-03-06T18:52:08.886Z,5.78
2019-03-06T18:54:39.800Z,5.81
2019-03-06T18:57:10.666Z,5.46
2019-03-06T18:59:41.549Z,5.35
2019-03-06T19:02:12.507Z,5.23
2019-03-06T19:04:43.403Z,4.81
2019-03-06T19:07:14.436Z,4.50
2019-03-06T19:09:45.779Z,4.65
2019-03-06T19:12:18.270Z,4.14
2019-03-06T19:14:50.090Z,3.95
2019-03-06T19:17:21.395Z,3.92
2019-03-06T19:19:52.401Z,3.96
2019-03-06T19:22:23.499Z,4.00
2019-03-06T19:24:54.497Z,3.79
2019-03-06T19:27:25.369Z,3.83
2019-03-06T19:29:56.269Z,3.56
2019-03-06T19:32:27.824Z,3.42
2019-03-06T19:35:00.773Z,3.55
2019-03-06T19:37:31.652Z,3.72
2019-03-06T19:40:04.160Z,4.09
2019-03-06T19:42:35.161Z,4.14
2019-03-06T19:45:07.147Z,3.95
2019-03-06T19:47:38.282Z,4.09
2019-03-06T19:50:11.988Z,4.31
2019-03-06T19:52:43.069Z,4.38
2019-03-06T19:55:15.961Z,4.57
2019-03-06T19:57:54.908Z,4.49
2019-03-06T20:00:26.657Z,4.67
2019-03-06T20:02:58.478Z,4.42
2019-03-06T20:05:35.819Z,3.94
2019-03-06T20:08:09.866Z,3.89
2019-03-06T20:10:41.545Z,3.94
2019-03-06T20:13:12.692Z,3.74
2019-03-06T20:15:44.665Z,3.24
2019-03-06T20:18:15.637Z,3.08
2019-03-06T20:20:46.820Z,3.00
2019-03-06T20:23:17.823Z,3.01
2019-03-06T20:25:49.077Z,3.21
2019-03-06T20:28:19.993Z,3.27
2019-03-06T20:30:50.865Z,2.86
2019-03-06T20:33:22.189Z,2.67
2019-03-06T20:35:54.229Z,2.78
2019-03-06T20:38:25.103Z,2.87
2019-03-06T20:40:55.951Z,2.99
2019-03-06T20:43:27.026Z,2.45
2019-03-06T20:45:57.886Z,2.13
2019-03-06T20:48:28.883Z,2.18
2019-03-06T20:50:59.883Z,2.36
2019-03-06T20:53:30.746Z,2.70
2019-03-06T20:56:01.613Z,2.94
2019-03-06T20:58:32.659Z,2.94
2019-03-06T21:01:22.282Z,2.88
2019-03-06T21:04:11.537Z,3.08
2019-03-06T21:07:01.337Z,3.27
2019-03-06T21:09:51.117Z,3.02
2019-03-06T21:12:40.674Z,2.38
2019-03-06T21:15:30.098Z,1.67
2019-03-06T21:18:19.399Z,1.63
2019-03-06T21:21:08.813Z,1.51
2019-03-06T21:23:58.057Z,1.98
2019-03-06T21:26:47.538Z,2.26
2019-03-06T21:29:36.845Z,2.55
2019-03-06T21:32:25.658Z,2.72
2019-03-06T21:35:15.043Z,2.79
2019-03-06T21:38:04.389Z,2.72
2019-03-06T21:40:54.130Z,2.66
2019-03-06T21:43:43.794Z,2.43
2019-03-06T21:46:32.850Z,2.36
2019-03-06T21:49:22.102Z,2.31
2019-03-06T21:52:11.261Z,2.42
2019-03-06T21:55:00.582Z,2.63
2019-03-06T21:57:50.096Z,2.39
2019-03-06T22:00:39.661Z,1.85
2019-03-06T22:03:28.513Z,1.73
2019-03-06T22:06:17.932Z,1.56
2019-03-06T22:09:13.648Z,1.22
2019-03-06T22:12:05.609Z,1.26
2019-03-06T22:14:54.431Z,1.47
2019-03-06T22:17:44.111Z,1.64
2019-03-06T22:20:33.269Z,1.38
2019-03-06T22:23:22.991Z,1.60
2019-03-06T22:26:12.284Z,1.45
2019-03-06T22:29:02.266Z,1.71
2019-03-06T22:31:51.641Z,1.41
2019-03-06T22:34:41.251Z,0.79
2019-03-06T22:37:31.520Z,0.60
2019-03-06T22:40:20.491Z,0.78
2019-03-06T22:43:09.778Z,1.06
2019-03-06T22:45:59.046Z,1.29
2019-03-06T22:48:48.544Z,1.17
2019-03-06T22:51:37.419Z,1.09
2019-03-06T22:54:26.699Z,1.24
2019-03-06T22:57:15.960Z,1.26
2019-03-06T23:00:11.370Z,0.87
2019-03-06T23:03:00.858Z,1.20
2019-03-06T23:05:50.388Z,1.40
2019-03-06T23:08:39.579Z,1.65
2019-03-06T23:11:28.516Z,1.72
2019-03-06T23:14:18.128Z,1.74
2019-03-06T23:17:10.336Z,1.33
2019-03-06T23:19:59.392Z,1.23
2019-03-06T23:22:48.900Z,0.67
2019-03-06T23:25:38.334Z,0.88
2019-03-06T23:28:27.215Z,1.06
2019-03-06T23:31:16.885Z,1.32
2019-03-06T23:34:06.268Z,1.55
2019-03-06T23:36:55.568Z,1.47
2019-03-06T23:39:46.364Z,0.95
2019-03-06T23:42:35.970Z,0.77
2019-03-06T23:45:24.989Z,0.78
2019-03-06T23:48:14.575Z,0.38
2019-03-06T23:51:09.331Z,0.32
2019-03-06T23:53:58.133Z,0.70
2019-03-06T23:56:47.430Z,0.87
2019-03-06T23:59:36.913Z,0.79
